sensor_id;sensor_type;location;lat;lon;timestamp;temperature;humidity
52575;DHT22;38468;48.114;-1.684;2023-11-18T00:01:37;12.10;79.10
52575;DHT22;38468;48.114;-1.684;2023-11-18T00:03:38;12.10;79.50
52575;DHT22;38468;48.114;-1.684;2023-11-18T00:05:39;12.10;79.30
52575;DHT22;38468;48.114;-1.684;2023-11-18T00:07:39;12.10;79.40
52575;DHT22;38468;48.114;-1.684;2023-11-18T00:09:40;12.10;79.30
52575;DHT22;38468;48.114;-1.684;2023-11-18T00:11:43;12.10;79.90
52575;DHT22;38468;48.114;-1.684;2023-11-18T00:13:44;12.10;79.80
52575;DHT22;38468;48.114;-1.684;2023-11-18T00:15:45;12.10;79.90
52575;DHT22;38468;48.114;-1.684;2023-11-18T00:17:46;12.10;80.00
52575;DHT22;38468;48.114;-1.684;2023-11-18T00:19:47;12.10;80.30
52575;DHT22;38468;48.114;-1.684;2023-11-18T00:21:47;12.00;80.40
52575;DHT22;38468;48.114;-1.684;2023-11-18T00:23:48;12.10;80.50
52575;DHT22;38468;48.114;-1.684;2023-11-18T00:25:49;12.10;80.80
52575;DHT22;38468;48.114;-1.684;2023-11-18T00:27:49;12.00;80.90
52575;DHT22;38468;48.114;-1.684;2023-11-18T00:29:50;12.00;80.60
52575;DHT22;38468;48.114;-1.684;2023-11-18T00:31:50;12.10;80.40
52575;DHT22;38468;48.114;-1.684;2023-11-18T00:33:51;12.10;80.40
52575;DHT22;38468;48.114;-1.684;2023-11-18T00:35:52;12.20;80.40
52575;DHT22;38468;48.114;-1.684;2023-11-18T00:37:53;12.20;80.70
52575;DHT22;38468;48.114;-1.684;2023-11-18T00:39:53;12.20;80.70
52575;DHT22;38468;48.114;-1.684;2023-11-18T00:41:54;12.20;80.70
52575;DHT22;38468;48.114;-1.684;2023-11-18T00:43:56;12.20;81.00
52575;DHT22;38468;48.114;-1.684;2023-11-18T00:45:56;12.20;81.30
52575;DHT22;38468;48.114;-1.684;2023-11-18T00:47:59;12.20;81.10
52575;DHT22;38468;48.114;-1.684;2023-11-18T00:50:00;12.30;80.80
52575;DHT22;38468;48.114;-1.684;2023-11-18T00:52:02;12.30;80.70
52575;DHT22;38468;48.114;-1.684;2023-11-18T00:54:04;12.40;80.80
52575;DHT22;38468;48.114;-1.684;2023-11-18T00:56:08;12.40;80.80
52575;DHT22;38468;48.114;-1.684;2023-11-18T00:58:10;12.40;80.60
52575;DHT22;38468;48.114;-1.684;2023-11-18T01:00:14;12.50;80.70
52575;DHT22;38468;48.114;-1.684;2023-11-18T01:02:16;12.50;80.60
52575;DHT22;38468;48.114;-1.684;2023-11-18T01:04:18;12.50;80.90
52575;DHT22;38468;48.114;-1.684;2023-11-18T01:06:20;12.50;81.00
52575;DHT22;38468;48.114;-1.684;2023-11-18T01:08:22;12.50;81.10
52575;DHT22;38468;48.114;-1.684;2023-11-18T01:10:23;12.50;81.00
52575;DHT22;38468;48.114;-1.684;2023-11-18T01:12:24;12.50;81.40
52575;DHT22;38468;48.114;-1.684;2023-11-18T01:14:25;12.50;81.50
52575;DHT22;38468;48.114;-1.684;2023-11-18T01:16:26;12.50;81.40
52575;DHT22;38468;48.114;-1.684;2023-11-18T01:18:28;12.50;81.60
52575;DHT22;38468;48.114;-1.684;2023-11-18T01:20:29;12.50;81.70
52575;DHT22;38468;48.114;-1.684;2023-11-18T01:22:29;12.50;81.70
52575;DHT22;38468;48.114;-1.684;2023-11-18T01:24:30;12.50;81.60
52575;DHT22;38468;48.114;-1.684;2023-11-18T01:26:31;12.60;81.70
52575;DHT22;38468;48.114;-1.684;2023-11-18T01:28:34;12.60;81.90
52575;DHT22;38468;48.114;-1.684;2023-11-18T01:30:37;12.50;81.90
52575;DHT22;38468;48.114;-1.684;2023-11-18T01:32:38;12.50;82.00
52575;DHT22;38468;48.114;-1.684;2023-11-18T01:34:40;12.50;82.10
52575;DHT22;38468;48.114;-1.684;2023-11-18T01:36:41;12.50;82.10
52575;DHT22;38468;48.114;-1.684;2023-11-18T01:38:44;12.60;82.20
52575;DHT22;38468;48.114;-1.684;2023-11-18T01:40:44;12.50;82.40
52575;DHT22;38468;48.114;-1.684;2023-11-18T01:42:45;12.50;82.20
52575;DHT22;38468;48.114;-1.684;2023-11-18T01:44:46;12.60;82.50
52575;DHT22;38468;48.114;-1.684;2023-11-18T01:46:47;12.50;82.80
52575;DHT22;38468;48.114;-1.684;2023-11-18T01:48:48;12.50;82.80
52575;DHT22;38468;48.114;-1.684;2023-11-18T01:50:49;12.50;82.70
52575;DHT22;38468;48.114;-1.684;2023-11-18T01:52:51;12.60;82.70
52575;DHT22;38468;48.114;-1.684;2023-11-18T01:54:54;12.50;83.00
52575;DHT22;38468;48.114;-1.684;2023-11-18T01:56:55;12.50;82.80
52575;DHT22;38468;48.114;-1.684;2023-11-18T01:58:56;12.50;83.10
52575;DHT22;38468;48.114;-1.684;2023-11-18T02:00:59;12.50;83.50
52575;DHT22;38468;48.114;-1.684;2023-11-18T02:02:59;12.50;83.40
52575;DHT22;38468;48.114;-1.684;2023-11-18T02:05:00;12.50;83.50
52575;DHT22;38468;48.114;-1.684;2023-11-18T02:07:06;12.50;83.50
52575;DHT22;38468;48.114;-1.684;2023-11-18T02:09:09;12.50;83.80
52575;DHT22;38468;48.114;-1.684;2023-11-18T02:11:31;12.50;84.10
52575;DHT22;38468;48.114;-1.684;2023-11-18T02:13:36;12.50;84.10
52575;DHT22;38468;48.114;-1.684;2023-11-18T02:15:38;12.40;84.30
52575;DHT22;38468;48.114;-1.684;2023-11-18T02:17:41;12.50;84.10
52575;DHT22;38468;48.114;-1.684;2023-11-18T02:19:45;12.40;84.60
52575;DHT22;38468;48.114;-1.684;2023-11-18T02:21:47;12.40;84.80
52575;DHT22;38468;48.114;-1.684;2023-11-18T02:23:50;12.40;84.80
52575;DHT22;38468;48.114;-1.684;2023-11-18T02:25:51;12.40;84.80
52575;DHT22;38468;48.114;-1.684;2023-11-18T02:27:51;12.40;84.80
52575;DHT22;38468;48.114;-1.684;2023-11-18T02:29:53;12.50;84.90
52575;DHT22;38468;48.114;-1.684;2023-11-18T02:31:57;12.40;84.90
52575;DHT22;38468;48.114;-1.684;2023-11-18T02:34:12;12.50;84.60
52575;DHT22;38468;48.114;-1.684;2023-11-18T02:36:25;12.50;84.50
52575;DHT22;38468;48.114;-1.684;2023-11-18T02:38:30;12.60;84.50
52575;DHT22;38468;48.114;-1.684;2023-11-18T02:40:35;12.70;84.40
52575;DHT22;38468;48.114;-1.684;2023-11-18T02:42:37;12.60;84.60
52575;DHT22;38468;48.114;-1.684;2023-11-18T02:44:39;12.60;84.70
52575;DHT22;38468;48.114;-1.684;2023-11-18T02:46:40;12.60;84.60
52575;DHT22;38468;48.114;-1.684;2023-11-18T02:48:44;12.60;84.80
52575;DHT22;38468;48.114;-1.684;2023-11-18T02:50:44;12.70;84.70
52575;DHT22;38468;48.114;-1.684;2023-11-18T02:52:45;12.70;84.70
52575;DHT22;38468;48.114;-1.684;2023-11-18T02:54:45;12.70;84.70
52575;DHT22;38468;48.114;-1.684;2023-11-18T02:56:46;12.70;84.70
52575;DHT22;38468;48.114;-1.684;2023-11-18T02:58:48;12.70;84.90
52575;DHT22;38468;48.114;-1.684;2023-11-18T03:00:48;12.70;85.20
52575;DHT22;38468;48.114;-1.684;2023-11-18T03:02:52;12.70;85.20
52575;DHT22;38468;48.114;-1.684;2023-11-18T03:04:53;12.70;85.10
52575;DHT22;38468;48.114;-1.684;2023-11-18T03:06:54;12.80;85.10
52575;DHT22;38468;48.114;-1.684;2023-11-18T03:08:54;12.80;85.20
52575;DHT22;38468;48.114;-1.684;2023-11-18T03:10:55;12.80;85.50
52575;DHT22;38468;48.114;-1.684;2023-11-18T03:12:56;12.70;85.50
52575;DHT22;38468;48.114;-1.684;2023-11-18T03:14:57;12.80;85.60
52575;DHT22;38468;48.114;-1.684;2023-11-18T03:16:58;12.80;85.40
52575;DHT22;38468;48.114;-1.684;2023-11-18T03:18:58;12.90;85.30
52575;DHT22;38468;48.114;-1.684;2023-11-18T03:20:59;12.90;85.70
52575;DHT22;38468;48.114;-1.684;2023-11-18T03:23:00;12.90;85.50
52575;DHT22;38468;48.114;-1.684;2023-11-18T03:25:02;12.90;85.40
52575;DHT22;38468;48.114;-1.684;2023-11-18T03:27:02;12.90;85.50
52575;DHT22;38468;48.114;-1.684;2023-11-18T03:29:03;12.90;85.50
52575;DHT22;38468;48.114;-1.684;2023-11-18T03:31:05;12.90;85.70
52575;DHT22;38468;48.114;-1.684;2023-11-18T03:33:05;13.00;85.60
52575;DHT22;38468;48.114;-1.684;2023-11-18T03:35:11;13.00;85.50
52575;DHT22;38468;48.114;-1.684;2023-11-18T03:37:11;13.00;85.50
52575;DHT22;38468;48.114;-1.684;2023-11-18T03:39:12;13.00;85.50
52575;DHT22;38468;48.114;-1.684;2023-11-18T03:41:15;13.00;85.60
52575;DHT22;38468;48.114;-1.684;2023-11-18T03:43:15;13.00;85.50
52575;DHT22;38468;48.114;-1.684;2023-11-18T03:45:16;13.00;85.80
52575;DHT22;38468;48.114;-1.684;2023-11-18T03:47:18;13.00;85.80
52575;DHT22;38468;48.114;-1.684;2023-11-18T03:49:19;13.00;86.00
52575;DHT22;38468;48.114;-1.684;2023-11-18T03:51:21;13.00;85.80
52575;DHT22;38468;48.114;-1.684;2023-11-18T03:53:21;13.10;85.80
52575;DHT22;38468;48.114;-1.684;2023-11-18T03:55:22;13.20;85.90
52575;DHT22;38468;48.114;-1.684;2023-11-18T03:57:23;13.10;85.80
52575;DHT22;38468;48.114;-1.684;2023-11-18T03:59:23;13.20;85.90
52575;DHT22;38468;48.114;-1.684;2023-11-18T04:01:25;13.20;86.00
52575;DHT22;38468;48.114;-1.684;2023-11-18T04:03:27;13.10;86.00
52575;DHT22;38468;48.114;-1.684;2023-11-18T04:05:28;13.20;86.10
52575;DHT22;38468;48.114;-1.684;2023-11-18T04:07:29;13.20;86.10
52575;DHT22;38468;48.114;-1.684;2023-11-18T04:09:30;13.20;86.00
52575;DHT22;38468;48.114;-1.684;2023-11-18T04:11:31;13.20;86.10
52575;DHT22;38468;48.114;-1.684;2023-11-18T04:13:31;13.20;86.20
52575;DHT22;38468;48.114;-1.684;2023-11-18T04:15:32;13.20;86.30
52575;DHT22;38468;48.114;-1.684;2023-11-18T04:17:33;13.20;86.30
52575;DHT22;38468;48.114;-1.684;2023-11-18T04:19:34;13.20;86.30
52575;DHT22;38468;48.114;-1.684;2023-11-18T04:21:35;13.20;86.30
52575;DHT22;38468;48.114;-1.684;2023-11-18T04:23:41;13.30;86.30
52575;DHT22;38468;48.114;-1.684;2023-11-18T04:25:42;13.30;86.20
52575;DHT22;38468;48.114;-1.684;2023-11-18T04:27:42;13.30;86.30
52575;DHT22;38468;48.114;-1.684;2023-11-18T04:29:43;13.30;86.20
52575;DHT22;38468;48.114;-1.684;2023-11-18T04:31:43;13.40;86.20
52575;DHT22;38468;48.114;-1.684;2023-11-18T04:33:44;13.40;86.30
52575;DHT22;38468;48.114;-1.684;2023-11-18T04:35:46;13.40;86.30
52575;DHT22;38468;48.114;-1.684;2023-11-18T04:37:47;13.40;86.20
52575;DHT22;38468;48.114;-1.684;2023-11-18T04:39:48;13.40;86.30
52575;DHT22;38468;48.114;-1.684;2023-11-18T04:41:49;13.40;86.30
52575;DHT22;38468;48.114;-1.684;2023-11-18T04:43:50;13.40;86.30
52575;DHT22;38468;48.114;-1.684;2023-11-18T04:45:50;13.50;86.20
52575;DHT22;38468;48.114;-1.684;2023-11-18T04:47:53;13.50;86.20
52575;DHT22;38468;48.114;-1.684;2023-11-18T04:49:54;13.50;86.30
52575;DHT22;38468;48.114;-1.684;2023-11-18T04:51:55;13.50;86.30
52575;DHT22;38468;48.114;-1.684;2023-11-18T04:53:56;13.50;86.20
52575;DHT22;38468;48.114;-1.684;2023-11-18T04:55:56;13.50;86.40
52575;DHT22;38468;48.114;-1.684;2023-11-18T04:57:57;13.50;86.30
52575;DHT22;38468;48.114;-1.684;2023-11-18T04:59:57;13.50;86.50
52575;DHT22;38468;48.114;-1.684;2023-11-18T05:01:58;13.50;86.60
52575;DHT22;38468;48.114;-1.684;2023-11-18T05:03:59;13.50;86.60
52575;DHT22;38468;48.114;-1.684;2023-11-18T05:06:00;13.50;86.70
52575;DHT22;38468;48.114;-1.684;2023-11-18T05:08:00;13.50;86.60
52575;DHT22;38468;48.114;-1.684;2023-11-18T05:10:03;13.50;86.80
52575;DHT22;38468;48.114;-1.684;2023-11-18T05:12:04;13.50;86.90
52575;DHT22;38468;48.114;-1.684;2023-11-18T05:14:05;13.50;86.90
52575;DHT22;38468;48.114;-1.684;2023-11-18T05:16:07;13.50;87.00
52575;DHT22;38468;48.114;-1.684;2023-11-18T05:18:08;13.50;86.90
52575;DHT22;38468;48.114;-1.684;2023-11-18T05:20:11;13.50;86.90
52575;DHT22;38468;48.114;-1.684;2023-11-18T05:22:13;13.50;86.90
52575;DHT22;38468;48.114;-1.684;2023-11-18T05:24:13;13.50;86.90
52575;DHT22;38468;48.114;-1.684;2023-11-18T05:26:15;13.50;86.90
52575;DHT22;38468;48.114;-1.684;2023-11-18T05:28:16;13.50;86.90
52575;DHT22;38468;48.114;-1.684;2023-11-18T05:30:16;13.50;86.80
52575;DHT22;38468;48.114;-1.684;2023-11-18T05:32:18;13.50;86.90
52575;DHT22;38468;48.114;-1.684;2023-11-18T05:34:24;13.50;87.00
52575;DHT22;38468;48.114;-1.684;2023-11-18T05:36:25;13.50;87.00
52575;DHT22;38468;48.114;-1.684;2023-11-18T05:38:30;13.50;87.00
52575;DHT22;38468;48.114;-1.684;2023-11-18T05:40:35;13.50;87.00
52575;DHT22;38468;48.114;-1.684;2023-11-18T05:42:39;13.50;87.00
52575;DHT22;38468;48.114;-1.684;2023-11-18T05:44:42;13.50;87.00
52575;DHT22;38468;48.114;-1.684;2023-11-18T05:46:43;13.50;87.00
52575;DHT22;38468;48.114;-1.684;2023-11-18T05:48:48;13.50;87.10
52575;DHT22;38468;48.114;-1.684;2023-11-18T05:50:49;13.50;87.10
52575;DHT22;38468;48.114;-1.684;2023-11-18T05:52:49;13.50;87.10
52575;DHT22;38468;48.114;-1.684;2023-11-18T05:54:50;13.50;87.20
52575;DHT22;38468;48.114;-1.684;2023-11-18T05:56:50;13.50;87.10
52575;DHT22;38468;48.114;-1.684;2023-11-18T05:58:52;13.60;87.00
52575;DHT22;38468;48.114;-1.684;2023-11-18T06:00:55;13.60;87.00
52575;DHT22;38468;48.114;-1.684;2023-11-18T06:02:55;13.60;87.00
52575;DHT22;38468;48.114;-1.684;2023-11-18T06:04:56;13.60;87.10
52575;DHT22;38468;48.114;-1.684;2023-11-18T06:06:57;13.60;87.00
52575;DHT22;38468;48.114;-1.684;2023-11-18T06:08:58;13.60;87.10
52575;DHT22;38468;48.114;-1.684;2023-11-18T06:11:05;13.70;87.00
52575;DHT22;38468;48.114;-1.684;2023-11-18T06:13:13;13.70;87.10
52575;DHT22;38468;48.114;-1.684;2023-11-18T06:15:13;13.70;87.00
52575;DHT22;38468;48.114;-1.684;2023-11-18T06:17:14;13.70;87.20
52575;DHT22;38468;48.114;-1.684;2023-11-18T06:19:15;13.70;87.20
52575;DHT22;38468;48.114;-1.684;2023-11-18T06:21:23;13.70;87.20
52575;DHT22;38468;48.114;-1.684;2023-11-18T06:23:31;13.70;87.30
52575;DHT22;38468;48.114;-1.684;2023-11-18T06:25:33;13.70;87.20
52575;DHT22;38468;48.114;-1.684;2023-11-18T06:27:35;13.80;87.20
52575;DHT22;38468;48.114;-1.684;2023-11-18T06:29:36;13.70;87.20
52575;DHT22;38468;48.114;-1.684;2023-11-18T06:31:36;13.70;87.20
52575;DHT22;38468;48.114;-1.684;2023-11-18T06:33:38;13.70;87.40
52575;DHT22;38468;48.114;-1.684;2023-11-18T06:35:40;13.70;87.50
52575;DHT22;38468;48.114;-1.684;2023-11-18T06:37:41;13.70;87.50
52575;DHT22;38468;48.114;-1.684;2023-11-18T06:39:42;13.70;87.50
52575;DHT22;38468;48.114;-1.684;2023-11-18T06:41:45;13.70;87.60
52575;DHT22;38468;48.114;-1.684;2023-11-18T06:43:51;13.70;87.60
52575;DHT22;38468;48.114;-1.684;2023-11-18T06:45:51;13.80;87.60
52575;DHT22;38468;48.114;-1.684;2023-11-18T06:47:52;13.70;87.70
52575;DHT22;38468;48.114;-1.684;2023-11-18T06:49:53;13.70;87.60
52575;DHT22;38468;48.114;-1.684;2023-11-18T06:51:53;13.80;87.50
52575;DHT22;38468;48.114;-1.684;2023-11-18T06:53:54;13.80;87.40
52575;DHT22;38468;48.114;-1.684;2023-11-18T06:55:58;13.90;87.40
52575;DHT22;38468;48.114;-1.684;2023-11-18T06:57:58;13.90;87.40
52575;DHT22;38468;48.114;-1.684;2023-11-18T06:59:59;13.80;87.50
52575;DHT22;38468;48.114;-1.684;2023-11-18T07:02:00;13.90;87.50
52575;DHT22;38468;48.114;-1.684;2023-11-18T07:04:00;13.80;87.60
52575;DHT22;38468;48.114;-1.684;2023-11-18T07:06:04;13.80;87.50
52575;DHT22;38468;48.114;-1.684;2023-11-18T07:08:06;13.90;87.60
52575;DHT22;38468;48.114;-1.684;2023-11-18T07:10:09;13.90;87.60
52575;DHT22;38468;48.114;-1.684;2023-11-18T07:12:13;13.90;87.70
52575;DHT22;38468;48.114;-1.684;2023-11-18T07:14:14;13.80;87.60
52575;DHT22;38468;48.114;-1.684;2023-11-18T07:16:17;13.90;87.70
52575;DHT22;38468;48.114;-1.684;2023-11-18T07:18:19;13.90;87.70
52575;DHT22;38468;48.114;-1.684;2023-11-18T07:20:22;13.90;87.70
52575;DHT22;38468;48.114;-1.684;2023-11-18T07:22:23;13.90;87.80
52575;DHT22;38468;48.114;-1.684;2023-11-18T07:24:25;13.90;87.80
52575;DHT22;38468;48.114;-1.684;2023-11-18T07:26:26;13.90;87.80
52575;DHT22;38468;48.114;-1.684;2023-11-18T07:28:26;13.90;87.80
52575;DHT22;38468;48.114;-1.684;2023-11-18T07:30:27;13.90;87.90
52575;DHT22;38468;48.114;-1.684;2023-11-18T07:32:28;14.00;87.90
52575;DHT22;38468;48.114;-1.684;2023-11-18T07:34:29;13.90;88.00
52575;DHT22;38468;48.114;-1.684;2023-11-18T07:36:33;14.00;88.00
52575;DHT22;38468;48.114;-1.684;2023-11-18T07:38:34;14.00;87.90
52575;DHT22;38468;48.114;-1.684;2023-11-18T07:40:35;14.00;88.00
52575;DHT22;38468;48.114;-1.684;2023-11-18T07:42:35;14.00;87.90
52575;DHT22;38468;48.114;-1.684;2023-11-18T07:44:36;14.00;87.90
52575;DHT22;38468;48.114;-1.684;2023-11-18T07:46:39;14.00;87.80
52575;DHT22;38468;48.114;-1.684;2023-11-18T07:48:42;14.10;87.80
52575;DHT22;38468;48.114;-1.684;2023-11-18T07:50:43;14.10;87.80
52575;DHT22;38468;48.114;-1.684;2023-11-18T07:52:44;14.10;87.90
52575;DHT22;38468;48.114;-1.684;2023-11-18T07:54:45;14.10;88.00
52575;DHT22;38468;48.114;-1.684;2023-11-18T07:56:46;14.00;88.00
52575;DHT22;38468;48.114;-1.684;2023-11-18T07:58:48;14.10;88.00
52575;DHT22;38468;48.114;-1.684;2023-11-18T08:00:49;14.10;88.10
52575;DHT22;38468;48.114;-1.684;2023-11-18T08:02:50;14.10;88.20
52575;DHT22;38468;48.114;-1.684;2023-11-18T08:04:54;14.10;88.20
52575;DHT22;38468;48.114;-1.684;2023-11-18T08:06:56;14.10;88.20
52575;DHT22;38468;48.114;-1.684;2023-11-18T08:08:57;14.20;88.10
52575;DHT22;38468;48.114;-1.684;2023-11-18T08:10:58;14.20;88.10
52575;DHT22;38468;48.114;-1.684;2023-11-18T08:12:59;14.20;88.10
52575;DHT22;38468;48.114;-1.684;2023-11-18T08:15:00;14.20;88.10
52575;DHT22;38468;48.114;-1.684;2023-11-18T08:17:00;14.20;88.20
52575;DHT22;38468;48.114;-1.684;2023-11-18T08:19:01;14.20;88.40
52575;DHT22;38468;48.114;-1.684;2023-11-18T08:21:08;14.20;88.30
52575;DHT22;38468;48.114;-1.684;2023-11-18T08:23:09;14.20;88.30
52575;DHT22;38468;48.114;-1.684;2023-11-18T08:25:11;14.20;88.40
52575;DHT22;38468;48.114;-1.684;2023-11-18T08:27:13;14.30;88.40
52575;DHT22;38468;48.114;-1.684;2023-11-18T08:29:13;14.30;88.40
52575;DHT22;38468;48.114;-1.684;2023-11-18T08:31:14;14.30;88.40
52575;DHT22;38468;48.114;-1.684;2023-11-18T08:33:18;14.40;88.40
52575;DHT22;38468;48.114;-1.684;2023-11-18T08:35:24;14.40;88.50
52575;DHT22;38468;48.114;-1.684;2023-11-18T08:37:25;14.30;88.50
52575;DHT22;38468;48.114;-1.684;2023-11-18T08:39:26;14.40;88.60
52575;DHT22;38468;48.114;-1.684;2023-11-18T08:41:29;14.40;88.60
52575;DHT22;38468;48.114;-1.684;2023-11-18T08:43:31;14.40;88.60
52575;DHT22;38468;48.114;-1.684;2023-11-18T08:45:32;14.40;88.70
52575;DHT22;38468;48.114;-1.684;2023-11-18T08:47:33;14.40;88.60
52575;DHT22;38468;48.114;-1.684;2023-11-18T08:49:34;14.50;88.60
52575;DHT22;38468;48.114;-1.684;2023-11-18T08:51:34;14.50;88.70
52575;DHT22;38468;48.114;-1.684;2023-11-18T08:53:37;14.50;88.70
52575;DHT22;38468;48.114;-1.684;2023-11-18T08:55:41;14.50;88.60
52575;DHT22;38468;48.114;-1.684;2023-11-18T08:57:51;14.50;88.70
52575;DHT22;38468;48.114;-1.684;2023-11-18T09:00:04;14.60;88.70
52575;DHT22;38468;48.114;-1.684;2023-11-18T09:02:18;14.60;88.80
52575;DHT22;38468;48.114;-1.684;2023-11-18T09:04:23;14.60;88.80
52575;DHT22;38468;48.114;-1.684;2023-11-18T09:06:24;14.70;88.90
52575;DHT22;38468;48.114;-1.684;2023-11-18T09:10:35;14.70;88.90
52575;DHT22;38468;48.114;-1.684;2023-11-18T09:12:35;14.80;88.90
52575;DHT22;38468;48.114;-1.684;2023-11-18T09:14:36;14.80;88.80
52575;DHT22;38468;48.114;-1.684;2023-11-18T09:16:37;14.80;88.90
52575;DHT22;38468;48.114;-1.684;2023-11-18T09:18:42;14.80;88.80
52575;DHT22;38468;48.114;-1.684;2023-11-18T09:20:45;14.90;88.80
52575;DHT22;38468;48.114;-1.684;2023-11-18T09:22:48;14.90;88.80
52575;DHT22;38468;48.114;-1.684;2023-11-18T09:24:49;14.90;88.80
52575;DHT22;38468;48.114;-1.684;2023-11-18T09:26:50;14.90;88.70
52575;DHT22;38468;48.114;-1.684;2023-11-18T09:28:51;15.00;88.60
52575;DHT22;38468;48.114;-1.684;2023-11-18T09:30:52;14.90;88.70
52575;DHT22;38468;48.114;-1.684;2023-11-18T09:32:53;15.00;88.70
52575;DHT22;38468;48.114;-1.684;2023-11-18T09:34:55;15.00;88.80
52575;DHT22;38468;48.114;-1.684;2023-11-18T09:36:55;15.00;88.80
52575;DHT22;38468;48.114;-1.684;2023-11-18T09:38:56;15.00;88.70
52575;DHT22;38468;48.114;-1.684;2023-11-18T09:40:58;15.00;88.80
52575;DHT22;38468;48.114;-1.684;2023-11-18T09:43:07;15.00;88.90
52575;DHT22;38468;48.114;-1.684;2023-11-18T09:45:09;15.00;89.00
52575;DHT22;38468;48.114;-1.684;2023-11-18T09:47:21;15.00;89.10
52575;DHT22;38468;48.114;-1.684;2023-11-18T09:49:29;15.00;89.20
52575;DHT22;38468;48.114;-1.684;2023-11-18T09:51:39;15.00;89.10
52575;DHT22;38468;48.114;-1.684;2023-11-18T09:53:41;15.00;89.00
52575;DHT22;38468;48.114;-1.684;2023-11-18T09:55:55;15.00;89.00
52575;DHT22;38468;48.114;-1.684;2023-11-18T09:58:04;15.00;89.00
52575;DHT22;38468;48.114;-1.684;2023-11-18T10:00:11;15.10;89.00
52575;DHT22;38468;48.114;-1.684;2023-11-18T10:02:28;15.00;89.00
52575;DHT22;38468;48.114;-1.684;2023-11-18T10:04:30;15.00;89.00
52575;DHT22;38468;48.114;-1.684;2023-11-18T10:06:35;15.00;89.00
52575;DHT22;38468;48.114;-1.684;2023-11-18T10:08:35;15.10;89.10
52575;DHT22;38468;48.114;-1.684;2023-11-18T10:10:38;15.10;89.10
52575;DHT22;38468;48.114;-1.684;2023-11-18T10:12:47;15.10;89.00
52575;DHT22;38468;48.114;-1.684;2023-11-18T10:14:52;15.10;89.00
52575;DHT22;38468;48.114;-1.684;2023-11-18T10:16:53;15.20;89.00
52575;DHT22;38468;48.114;-1.684;2023-11-18T10:18:54;15.10;89.00
52575;DHT22;38468;48.114;-1.684;2023-11-18T10:21:01;15.10;89.00
52575;DHT22;38468;48.114;-1.684;2023-11-18T10:23:09;15.20;89.00
52575;DHT22;38468;48.114;-1.684;2023-11-18T10:25:23;15.20;89.00
52575;DHT22;38468;48.114;-1.684;2023-11-18T10:27:25;15.20;88.90
52575;DHT22;38468;48.114;-1.684;2023-11-18T10:29:26;15.20;88.90
52575;DHT22;38468;48.114;-1.684;2023-11-18T10:31:30;15.20;88.90
52575;DHT22;38468;48.114;-1.684;2023-11-18T10:33:34;15.20;89.00
52575;DHT22;38468;48.114;-1.684;2023-11-18T10:35:36;15.20;89.00
52575;DHT22;38468;48.114;-1.684;2023-11-18T10:37:37;15.20;89.00
52575;DHT22;38468;48.114;-1.684;2023-11-18T10:39:47;15.20;89.10
52575;DHT22;38468;48.114;-1.684;2023-11-18T10:41:51;15.20;89.10
52575;DHT22;38468;48.114;-1.684;2023-11-18T10:44:06;15.20;89.20
52575;DHT22;38468;48.114;-1.684;2023-11-18T10:46:16;15.20;89.20
52575;DHT22;38468;48.114;-1.684;2023-11-18T10:48:17;15.20;89.20
52575;DHT22;38468;48.114;-1.684;2023-11-18T10:50:23;15.20;89.20
52575;DHT22;38468;48.114;-1.684;2023-11-18T10:52:27;15.30;89.20
52575;DHT22;38468;48.114;-1.684;2023-11-18T10:54:35;15.30;89.20
52575;DHT22;38468;48.114;-1.684;2023-11-18T10:56:37;15.40;89.20
52575;DHT22;38468;48.114;-1.684;2023-11-18T10:58:38;15.40;89.20
52575;DHT22;38468;48.114;-1.684;2023-11-18T11:00:48;15.40;89.20
52575;DHT22;38468;48.114;-1.684;2023-11-18T11:02:57;15.40;89.20
52575;DHT22;38468;48.114;-1.684;2023-11-18T11:05:01;15.40;89.20
52575;DHT22;38468;48.114;-1.684;2023-11-18T11:07:02;15.40;89.20
52575;DHT22;38468;48.114;-1.684;2023-11-18T11:09:05;15.50;89.10
52575;DHT22;38468;48.114;-1.684;2023-11-18T11:11:16;15.50;89.10
52575;DHT22;38468;48.114;-1.684;2023-11-18T11:13:22;15.50;89.10
52575;DHT22;38468;48.114;-1.684;2023-11-18T11:15:29;15.50;89.00
52575;DHT22;38468;48.114;-1.684;2023-11-18T11:17:31;15.50;89.00
52575;DHT22;38468;48.114;-1.684;2023-11-18T11:20:16;15.50;89.00
52575;DHT22;38468;48.114;-1.684;2023-11-18T11:22:32;15.60;88.90
52575;DHT22;38468;48.114;-1.684;2023-11-18T11:24:53;15.60;88.90
52575;DHT22;38468;48.114;-1.684;2023-11-18T11:27:08;15.70;88.90
52575;DHT22;38468;48.114;-1.684;2023-11-18T11:29:18;15.60;88.90
52575;DHT22;38468;48.114;-1.684;2023-11-18T11:31:38;15.60;88.90
52575;DHT22;38468;48.114;-1.684;2023-11-18T11:36:20;15.60;88.90
52575;DHT22;38468;48.114;-1.684;2023-11-18T11:38:24;15.70;88.90
52575;DHT22;38468;48.114;-1.684;2023-11-18T11:40:27;15.70;88.80
52575;DHT22;38468;48.114;-1.684;2023-11-18T11:42:31;15.70;88.80
52575;DHT22;38468;48.114;-1.684;2023-11-18T11:44:32;15.70;88.80
52575;DHT22;38468;48.114;-1.684;2023-11-18T11:46:41;15.70;88.70
52575;DHT22;38468;48.114;-1.684;2023-11-18T11:48:42;15.70;88.70
52575;DHT22;38468;48.114;-1.684;2023-11-18T11:53:15;15.80;88.70
52575;DHT22;38468;48.114;-1.684;2023-11-18T11:57:51;15.80;88.60
52575;DHT22;38468;48.114;-1.684;2023-11-18T11:59:54;15.70;88.60
52575;DHT22;38468;48.114;-1.684;2023-11-18T12:01:56;15.80;88.50
52575;DHT22;38468;48.114;-1.684;2023-11-18T12:03:58;15.80;88.50
52575;DHT22;38468;48.114;-1.684;2023-11-18T12:06:07;15.80;88.50
52575;DHT22;38468;48.114;-1.684;2023-11-18T12:08:17;15.80;88.50
52575;DHT22;38468;48.114;-1.684;2023-11-18T12:10:19;15.80;88.50
52575;DHT22;38468;48.114;-1.684;2023-11-18T12:12:23;15.90;88.40
52575;DHT22;38468;48.114;-1.684;2023-11-18T12:14:27;15.90;88.40
52575;DHT22;38468;48.114;-1.684;2023-11-18T12:17:01;15.90;88.40
52575;DHT22;38468;48.114;-1.684;2023-11-18T12:19:32;15.90;88.30
52575;DHT22;38468;48.114;-1.684;2023-11-18T12:21:54;15.90;88.30
52575;DHT22;38468;48.114;-1.684;2023-11-18T12:24:15;15.90;88.20
52575;DHT22;38468;48.114;-1.684;2023-11-18T12:26:54;16.00;88.20
52575;DHT22;38468;48.114;-1.684;2023-11-18T12:28:55;16.00;88.10
52575;DHT22;38468;48.114;-1.684;2023-11-18T12:30:57;16.00;88.00
52575;DHT22;38468;48.114;-1.684;2023-11-18T12:33:02;16.00;88.00
52575;DHT22;38468;48.114;-1.684;2023-11-18T12:35:06;16.00;88.00
52575;DHT22;38468;48.114;-1.684;2023-11-18T12:37:39;16.00;87.90
52575;DHT22;38468;48.114;-1.684;2023-11-18T12:45:09;16.20;87.90
52575;DHT22;38468;48.114;-1.684;2023-11-18T12:47:16;16.20;87.70
52575;DHT22;38468;48.114;-1.684;2023-11-18T12:49:23;16.20;87.60
52575;DHT22;38468;48.114;-1.684;2023-11-18T12:51:24;16.20;87.50
52575;DHT22;38468;48.114;-1.684;2023-11-18T12:53:25;16.30;87.60
52575;DHT22;38468;48.114;-1.684;2023-11-18T12:55:26;16.30;87.50
52575;DHT22;38468;48.114;-1.684;2023-11-18T12:57:30;16.30;87.40
52575;DHT22;38468;48.114;-1.684;2023-11-18T12:59:37;16.40;87.40
52575;DHT22;38468;48.114;-1.684;2023-11-18T13:01:38;16.40;87.30